createdAt,value
2017-10-14T00:01:41.072Z,67.95
2017-10-14T00:04:07.353Z,67.81
2017-10-14T00:06:33.623Z,68.25
2017-10-14T00:08:59.900Z,68.36
2017-10-14T00:11:26.224Z,68.27
2017-10-14T00:13:52.506Z,67.79
2017-10-14T00:16:18.761Z,68.14
2017-10-14T00:18:45.155Z,67.17
2017-10-14T00:21:11.420Z,67.00
2017-10-14T00:23:38.504Z,67.26
2017-10-14T00:26:04.784Z,67.15
2017-10-14T00:28:31.028Z,66.96
2017-10-14T00:30:58.048Z,66.51
2017-10-14T00:33:24.296Z,66.13
2017-10-14T00:35:50.650Z,66.24
2017-10-14T00:38:16.968Z,66.21
2017-10-14T00:40:43.995Z,66.22
2017-10-14T00:43:10.256Z,66.39
2017-10-14T00:45:36.512Z,66.19
2017-10-14T00:48:02.776Z,66.28
2017-10-14T00:50:29.109Z,66.33
2017-10-14T00:52:55.349Z,66.05
2017-10-14T00:55:21.658Z,65.83
2017-10-14T00:57:47.929Z,66.11
2017-10-14T01:00:14.962Z,66.13
2017-10-14T01:02:41.200Z,66.30
2017-10-14T01:05:08.241Z,66.56
2017-10-14T01:07:35.248Z,66.52
2017-10-14T01:10:01.543Z,66.70
2017-10-14T01:12:28.069Z,66.29
2017-10-14T01:14:55.095Z,66.18
2017-10-14T01:17:21.355Z,66.30
2017-10-14T01:19:47.669Z,66.28
2017-10-14T01:22:14.754Z,66.23
2017-10-14T01:24:41.010Z,66.39
2017-10-14T01:27:07.310Z,66.01
2017-10-14T01:29:33.561Z,65.99
2017-10-14T01:31:59.854Z,66.54
2017-10-14T01:34:26.145Z,66.47
2017-10-14T01:36:52.430Z,66.69
2017-10-14T01:39:18.662Z,66.43
2017-10-14T01:41:44.970Z,66.77
2017-10-14T01:44:12.092Z,66.86
2017-10-14T01:46:38.411Z,66.73
2017-10-14T01:49:05.470Z,66.72
2017-10-14T01:51:31.753Z,67.17
2017-10-14T01:53:58.082Z,66.99
2017-10-14T01:56:24.351Z,67.20
2017-10-14T01:58:50.717Z,67.63
2017-10-14T02:01:16.991Z,67.83
2017-10-14T02:03:43.270Z,68.14
2017-10-14T02:06:10.300Z,68.07
2017-10-14T02:08:36.594Z,67.92
2017-10-14T02:11:03.747Z,68.07
2017-10-14T02:13:30.039Z,68.15
2017-10-14T02:15:57.077Z,67.52
2017-10-14T02:18:24.063Z,67.66
2017-10-14T02:20:50.345Z,67.57
2017-10-14T02:23:16.657Z,68.01
2017-10-14T02:25:42.929Z,67.68
2017-10-14T02:28:09.239Z,67.53
2017-10-14T02:30:36.261Z,67.41
2017-10-14T02:33:02.592Z,67.71
2017-10-14T02:35:28.854Z,67.61
2017-10-14T02:37:55.848Z,67.82
2017-10-14T02:40:22.123Z,67.84
2017-10-14T02:42:49.906Z,68.40
2017-10-14T02:45:16.905Z,68.28
2017-10-14T02:47:43.261Z,68.52
2017-10-14T02:50:09.530Z,68.51
2017-10-14T02:52:35.817Z,68.53
2017-10-14T02:55:02.862Z,68.42
2017-10-14T02:57:29.108Z,68.44
2017-10-14T02:59:56.197Z,68.87
2017-10-14T03:02:22.473Z,68.98
2017-10-14T03:04:48.748Z,69.17
2017-10-14T03:07:15.052Z,68.96
2017-10-14T03:09:42.083Z,68.56
2017-10-14T03:12:08.399Z,68.72
2017-10-14T03:14:34.695Z,68.77
2017-10-14T03:17:00.968Z,68.92
2017-10-14T03:19:27.262Z,69.11
2017-10-14T03:21:53.562Z,69.27
2017-10-14T03:24:20.537Z,69.53
2017-10-14T03:26:46.816Z,69.47
2017-10-14T03:29:13.065Z,69.74
2017-10-14T03:31:39.305Z,70.18
2017-10-14T03:34:05.641Z,70.26
2017-10-14T03:36:31.942Z,70.48
2017-10-14T03:38:59.321Z,70.72
2017-10-14T03:41:25.617Z,71.13
2017-10-14T03:43:51.960Z,70.80
2017-10-14T03:46:18.995Z,70.56
2017-10-14T03:48:45.261Z,70.57
2017-10-14T03:51:11.532Z,70.83
2017-10-14T03:53:37.781Z,70.94
2017-10-14T03:56:04.031Z,71.33
2017-10-14T03:58:31.032Z,71.49
2017-10-14T04:00:57.307Z,71.77
2017-10-14T04:03:24.349Z,71.74
2017-10-14T04:05:51.388Z,71.90
2017-10-14T04:08:17.641Z,72.09
2017-10-14T04:10:43.889Z,72.22
2017-10-14T04:13:10.167Z,72.39
2017-10-14T04:15:36.436Z,72.76
2017-10-14T04:18:02.761Z,73.13
2017-10-14T04:20:29.070Z,73.27
2017-10-14T04:22:55.315Z,73.29
2017-10-14T04:25:22.353Z,73.29
2017-10-14T04:27:49.434Z,72.91
2017-10-14T04:30:15.710Z,72.64
2017-10-14T04:32:41.984Z,72.58
2017-10-14T04:35:08.254Z,72.61
2017-10-14T04:37:34.546Z,72.68
2017-10-14T04:40:00.854Z,73.02
2017-10-14T04:42:27.836Z,73.00
2017-10-14T04:44:54.074Z,73.04
2017-10-14T04:47:20.324Z,73.54
2017-10-14T04:49:46.620Z,73.67
2017-10-14T04:52:12.868Z,73.79
2017-10-14T04:54:39.148Z,74.02
2017-10-14T04:57:06.139Z,74.06
2017-10-14T04:59:32.427Z,74.33
2017-10-14T05:01:59.851Z,74.42
2017-10-14T05:04:26.134Z,74.48
2017-10-14T05:06:52.413Z,74.49
2017-10-14T05:09:18.660Z,74.60
2017-10-14T05:11:44.915Z,74.55
2017-10-14T05:14:12.153Z,74.72
2017-10-14T05:16:39.218Z,74.55
2017-10-14T05:19:06.310Z,74.25
2017-10-14T05:21:33.352Z,74.32
2017-10-14T05:23:59.597Z,74.13
2017-10-14T05:26:25.868Z,74.16
2017-10-14T05:28:52.891Z,74.00
2017-10-14T05:31:19.132Z,73.68
2017-10-14T05:33:46.160Z,73.52
2017-10-14T05:36:12.446Z,73.58
2017-10-14T05:38:38.763Z,73.44
2017-10-14T05:41:05.061Z,73.21
2017-10-14T05:43:31.359Z,73.07
2017-10-14T05:45:57.603Z,72.81
2017-10-14T05:48:23.904Z,72.71
2017-10-14T05:50:50.225Z,72.89
2017-10-14T05:53:16.472Z,72.66
2017-10-14T05:55:42.826Z,72.58
2017-10-14T05:58:09.119Z,72.29
2017-10-14T06:00:35.403Z,71.86
2017-10-14T06:03:01.739Z,71.37
2017-10-14T06:05:28.826Z,71.35
2017-10-14T06:07:55.113Z,71.15
2017-10-14T06:10:21.553Z,71.02
2017-10-14T06:12:47.812Z,71.24
2017-10-14T06:15:14.108Z,70.85
2017-10-14T06:17:40.413Z,70.61
2017-10-14T06:20:06.657Z,70.48
2017-10-14T06:22:32.972Z,70.02
2017-10-14T06:24:59.409Z,69.77
2017-10-14T06:27:25.718Z,70.01
2017-10-14T06:29:52.075Z,69.40
2017-10-14T06:32:18.338Z,69.27
2017-10-14T06:34:45.334Z,69.04
2017-10-14T06:37:11.593Z,69.08
2017-10-14T06:39:44.797Z,68.84
2017-10-14T06:42:11.904Z,68.73
2017-10-14T06:44:38.213Z,68.28
2017-10-14T06:47:04.499Z,68.33
2017-10-14T06:49:30.803Z,67.90
2017-10-14T06:51:57.135Z,67.66
2017-10-14T06:54:23.451Z,66.94
2017-10-14T06:56:49.727Z,66.89
2017-10-14T06:59:16.039Z,66.48
2017-10-14T07:01:42.321Z,66.46
2017-10-14T07:04:08.637Z,66.18
2017-10-14T07:06:35.762Z,65.90
2017-10-14T07:09:02.042Z,66.12
2017-10-14T07:11:28.332Z,66.31
2017-10-14T07:13:54.898Z,66.08
2017-10-14T07:16:21.313Z,66.07
2017-10-14T07:18:47.630Z,66.01
2017-10-14T07:21:13.984Z,65.94
2017-10-14T07:23:41.021Z,65.43
2017-10-14T07:26:08.172Z,65.38
2017-10-14T07:28:35.291Z,65.24
2017-10-14T07:31:01.592Z,65.21
2017-10-14T07:33:27.879Z,64.75
2017-10-14T07:35:54.936Z,65.06
2017-10-14T07:38:22.017Z,65.31
2017-10-14T07:40:48.327Z,64.95
2017-10-14T07:43:14.617Z,65.21
2017-10-14T07:45:40.889Z,64.90
2017-10-14T07:48:07.233Z,64.46
2017-10-14T07:50:33.605Z,64.14
2017-10-14T07:52:59.889Z,64.03
2017-10-14T07:55:26.219Z,63.21
2017-10-14T07:57:52.510Z,62.62
2017-10-14T08:00:18.815Z,62.62
2017-10-14T08:02:45.843Z,62.74
2017-10-14T08:05:12.142Z,63.01
2017-10-14T08:07:39.209Z,63.05
2017-10-14T08:10:05.506Z,62.49
2017-10-14T08:12:32.559Z,61.97
2017-10-14T08:15:00.550Z,61.99
2017-10-14T08:17:26.882Z,61.87
2017-10-14T08:19:53.128Z,61.60
2017-10-14T08:22:20.318Z,61.30
2017-10-14T08:24:46.599Z,60.93
2017-10-14T08:27:12.924Z,60.63
2017-10-14T08:29:39.184Z,60.25
2017-10-14T08:32:05.542Z,59.98
2017-10-14T08:34:31.934Z,59.05
2017-10-14T08:36:58.242Z,58.87
2017-10-14T08:39:25.314Z,58.48
2017-10-14T08:41:51.590Z,58.21
2017-10-14T08:44:17.848Z,58.40
2017-10-14T08:46:44.877Z,57.91
2017-10-14T08:49:11.159Z,58.06
2017-10-14T08:51:37.453Z,57.72
2017-10-14T08:54:04.553Z,57.51
2017-10-14T08:56:30.839Z,57.88
2017-10-14T08:58:57.881Z,56.60
2017-10-14T09:01:24.896Z,54.99
2017-10-14T09:03:51.157Z,53.67
2017-10-14T09:06:18.187Z,54.39
2017-10-14T09:08:45.229Z,53.83
2017-10-14T09:11:11.487Z,54.71
2017-10-14T09:13:37.838Z,55.00
2017-10-14T09:16:04.116Z,55.92
2017-10-14T09:18:30.372Z,56.38
2017-10-14T09:20:56.887Z,56.52
2017-10-14T09:23:23.280Z,56.70
2017-10-14T09:25:49.639Z,57.79
2017-10-14T09:28:15.948Z,57.31
2017-10-14T09:30:42.214Z,56.58
2017-10-14T09:33:08.514Z,56.57
2017-10-14T09:35:34.928Z,55.38
2017-10-14T09:38:01.292Z,55.71
2017-10-14T09:40:27.620Z,55.14
2017-10-14T09:42:53.862Z,54.44
2017-10-14T09:45:20.150Z,54.95
2017-10-14T09:47:46.397Z,54.59
2017-10-14T09:50:12.731Z,54.74
2017-10-14T09:52:39.043Z,54.36
2017-10-14T09:55:05.318Z,53.80
2017-10-14T09:57:31.609Z,54.06
2017-10-14T09:59:57.918Z,54.08
2017-10-14T10:02:24.207Z,53.63
2017-10-14T10:04:50.507Z,52.96
2017-10-14T10:07:16.839Z,52.37
2017-10-14T10:09:43.160Z,51.64
2017-10-14T10:12:09.499Z,51.51
2017-10-14T10:14:35.829Z,51.79
2017-10-14T10:17:02.248Z,51.08
2017-10-14T10:19:28.573Z,51.69
2017-10-14T10:21:54.869Z,52.48
2017-10-14T10:24:21.950Z,52.73
2017-10-14T10:26:48.225Z,52.75
2017-10-14T10:29:14.530Z,51.88
2017-10-14T10:31:40.836Z,51.07
2017-10-14T10:34:07.116Z,50.28
2017-10-14T10:36:33.394Z,50.17
2017-10-14T10:38:59.650Z,49.58
2017-10-14T10:41:25.916Z,50.24
2017-10-14T10:43:52.257Z,49.63
2017-10-14T10:46:18.539Z,49.93
2017-10-14T10:48:44.802Z,49.75
2017-10-14T10:51:11.327Z,49.41
2017-10-14T10:53:37.602Z,49.54
2017-10-14T10:56:10.898Z,48.96
2017-10-14T10:58:37.939Z,47.51
2017-10-14T11:01:04.274Z,48.07
2017-10-14T11:03:31.387Z,46.32
2017-10-14T11:05:57.787Z,43.78
2017-10-14T11:08:24.221Z,42.26
2017-10-14T11:10:50.584Z,38.93
2017-10-14T11:13:16.968Z,39.06
2017-10-14T11:15:43.221Z,37.44
2017-10-14T11:18:09.486Z,37.35
2017-10-14T11:20:35.759Z,33.45
2017-10-14T11:23:02.074Z,30.60
2017-10-14T11:25:29.058Z,28.60
2017-10-14T11:27:55.298Z,27.58
2017-10-14T11:30:21.574Z,31.58
2017-10-14T11:32:48.586Z,30.43
2017-10-14T11:35:14.860Z,29.17
2017-10-14T11:37:41.122Z,29.46
2017-10-14T11:40:07.385Z,28.23
2017-10-14T11:42:33.693Z,26.43
2017-10-14T11:44:59.970Z,26.10
2017-10-14T11:47:27.928Z,28.32
2017-10-14T11:49:54.226Z,29.31
2017-10-14T11:52:20.476Z,26.90
2017-10-14T11:54:46.777Z,27.86
2017-10-14T11:57:13.068Z,27.44
2017-10-14T11:59:39.337Z,26.42
2017-10-14T12:02:05.687Z,25.91
2017-10-14T12:04:31.922Z,26.67
2017-10-14T12:06:58.197Z,25.13
2017-10-14T12:09:24.534Z,24.97
2017-10-14T12:11:50.849Z,25.47
2017-10-14T12:14:17.174Z,25.43
2017-10-14T12:16:44.236Z,23.93
2017-10-14T12:19:10.481Z,24.99
2017-10-14T12:21:36.796Z,26.17
2017-10-14T12:24:03.095Z,28.12
2017-10-14T12:26:29.565Z,25.35
2017-10-14T12:28:55.852Z,26.32
2017-10-14T12:31:22.117Z,25.13
2017-10-14T12:33:48.393Z,23.41
2017-10-14T12:36:14.699Z,23.37
2017-10-14T12:38:40.957Z,20.79
2017-10-14T12:41:07.260Z,21.21
2017-10-14T12:43:33.582Z,21.56
2017-10-14T12:45:59.875Z,22.79
2017-10-14T12:48:26.903Z,21.28
2017-10-14T12:50:53.200Z,19.83
2017-10-14T12:53:19.529Z,19.87
2017-10-14T12:55:45.810Z,17.27
2017-10-14T12:58:12.122Z,19.08
2017-10-14T13:00:38.393Z,19.74
2017-10-14T13:03:04.648Z,21.93
2017-10-14T13:05:30.958Z,21.32
2017-10-14T13:07:57.256Z,18.61
2017-10-14T13:10:23.535Z,17.98
2017-10-14T13:12:49.813Z,19.51
2017-10-14T13:15:16.098Z,19.30
2017-10-14T13:17:42.389Z,21.96
2017-10-14T13:20:09.395Z,21.46
2017-10-14T13:22:35.730Z,21.81
2017-10-14T13:25:02.531Z,20.19
2017-10-14T13:27:28.819Z,20.47
2017-10-14T13:29:55.097Z,19.10
2017-10-14T13:32:22.139Z,20.67
2017-10-14T13:34:48.444Z,20.08
2017-10-14T13:37:15.513Z,20.94
2017-10-14T13:39:42.561Z,21.54
2017-10-14T13:42:09.688Z,23.90
2017-10-14T13:44:35.962Z,23.33
2017-10-14T13:47:02.296Z,21.21
2017-10-14T13:49:28.573Z,20.92
2017-10-14T13:51:54.830Z,20.20
2017-10-14T13:54:21.854Z,18.17
2017-10-14T13:56:48.218Z,18.12
2017-10-14T13:59:14.506Z,18.41
2017-10-14T14:01:40.798Z,18.18
2017-10-14T14:04:07.085Z,20.55
2017-10-14T14:06:34.120Z,22.26
2017-10-14T14:09:00.461Z,23.13
2017-10-14T14:11:26.791Z,24.33
2017-10-14T14:13:53.122Z,24.32
2017-10-14T14:16:19.367Z,23.39
2017-10-14T14:18:46.416Z,22.26
2017-10-14T14:21:13.519Z,22.18
2017-10-14T14:23:39.789Z,22.13
2017-10-14T14:26:06.918Z,22.75
2017-10-14T14:28:33.336Z,23.02
2017-10-14T14:30:59.633Z,23.43
2017-10-14T14:33:25.960Z,24.03
2017-10-14T14:35:52.338Z,25.51
2017-10-14T14:38:18.697Z,25.63
2017-10-14T14:40:45.800Z,25.08
2017-10-14T14:43:12.168Z,22.80
2017-10-14T14:45:38.560Z,23.21
2017-10-14T14:48:04.980Z,24.64
2017-10-14T14:50:31.426Z,23.98
2017-10-14T14:53:08.282Z,26.19
2017-10-14T14:55:35.347Z,26.81
2017-10-14T14:58:01.696Z,27.32
2017-10-14T15:00:28.013Z,26.80
2017-10-14T15:02:54.379Z,31.88
2017-10-14T15:05:20.818Z,36.64
2017-10-14T15:07:47.114Z,39.81
2017-10-14T15:10:13.543Z,41.05
2017-10-14T15:12:39.836Z,42.13
2017-10-14T15:15:07.027Z,44.23
2017-10-14T15:17:34.007Z,45.50
2017-10-14T15:20:00.276Z,45.79
2017-10-14T15:22:27.441Z,45.39
2017-10-14T15:24:53.734Z,46.84
2017-10-14T15:27:20.015Z,47.14
2017-10-14T15:29:46.327Z,48.13
2017-10-14T15:32:12.636Z,48.11
2017-10-14T15:34:38.954Z,47.96
2017-10-14T15:37:06.071Z,49.12
2017-10-14T15:39:32.405Z,50.40
2017-10-14T15:41:58.865Z,50.87
2017-10-14T15:44:25.178Z,50.85
2017-10-14T15:46:51.469Z,51.31
2017-10-14T15:49:17.756Z,52.22
2017-10-14T15:51:44.063Z,52.00
2017-10-14T15:54:10.371Z,52.16
2017-10-14T15:56:37.831Z,51.99
2017-10-14T15:59:04.994Z,52.26
2017-10-14T16:01:31.257Z,52.96
2017-10-14T16:03:57.586Z,53.54
2017-10-14T16:06:23.849Z,53.91
2017-10-14T16:08:50.211Z,54.51
2017-10-14T16:11:16.502Z,55.00
2017-10-14T16:13:42.775Z,55.35
2017-10-14T16:16:09.233Z,55.77
2017-10-14T16:18:35.491Z,56.24
2017-10-14T16:21:03.631Z,56.86
2017-10-14T16:23:29.949Z,56.98
2017-10-14T16:25:56.314Z,57.55
2017-10-14T16:28:23.369Z,58.18
2017-10-14T16:30:50.428Z,59.04
2017-10-14T16:33:16.794Z,59.61
2017-10-14T16:35:43.063Z,60.00
2017-10-14T16:38:09.333Z,60.22
2017-10-14T16:40:35.627Z,60.22
2017-10-14T16:43:01.910Z,60.42
2017-10-14T16:45:28.237Z,60.46
2017-10-14T16:47:54.554Z,60.79
2017-10-14T16:50:20.849Z,60.90
2017-10-14T16:52:47.950Z,61.39
2017-10-14T16:55:14.284Z,61.81
2017-10-14T16:57:40.835Z,62.30
2017-10-14T17:00:08.150Z,62.45
2017-10-14T17:02:34.445Z,62.97
2017-10-14T17:05:00.812Z,63.04
2017-10-14T17:07:27.078Z,63.32
2017-10-14T17:09:53.466Z,63.55
2017-10-14T17:12:19.823Z,63.68
2017-10-14T17:14:46.134Z,63.69
2017-10-14T17:17:12.450Z,63.80
2017-10-14T17:19:39.474Z,63.78
2017-10-14T17:22:05.771Z,63.49
2017-10-14T17:24:32.108Z,63.54
2017-10-14T17:26:58.452Z,63.61
2017-10-14T17:29:24.818Z,63.84
2017-10-14T17:31:51.857Z,63.89
2017-10-14T17:34:18.346Z,63.93
2017-10-14T17:36:44.653Z,64.22
2017-10-14T17:39:10.939Z,64.42
2017-10-14T17:41:37.383Z,64.63
2017-10-14T17:44:04.431Z,64.84
2017-10-14T17:46:31.553Z,65.06
2017-10-14T17:48:57.853Z,65.00
2017-10-14T17:51:24.155Z,65.03
2017-10-14T17:53:51.207Z,65.02
2017-10-14T17:56:22.224Z,64.86
2017-10-14T17:58:48.581Z,65.05
2017-10-14T18:01:16.745Z,64.99
2017-10-14T18:03:43.043Z,65.33
2017-10-14T18:06:16.398Z,65.53
2017-10-14T18:08:42.742Z,65.80
2017-10-14T18:11:09.067Z,66.36
2017-10-14T18:13:35.350Z,66.66
2017-10-14T18:16:02.763Z,66.96
2017-10-14T18:18:29.192Z,67.11
2017-10-14T18:20:55.622Z,67.33
2017-10-14T18:23:21.914Z,67.39
2017-10-14T18:25:48.945Z,67.33
2017-10-14T18:28:15.254Z,67.61
2017-10-14T18:30:41.535Z,67.90
2017-10-14T18:33:08.707Z,68.20
2017-10-14T18:35:35.029Z,68.56
2017-10-14T18:38:02.070Z,68.67
2017-10-14T18:40:29.163Z,68.53
2017-10-14T18:42:55.479Z,68.79
2017-10-14T18:45:21.818Z,69.20
2017-10-14T18:47:48.239Z,69.14
2017-10-14T18:50:15.573Z,69.32
2017-10-14T18:52:42.636Z,69.59
2017-10-14T18:55:08.994Z,69.47
2017-10-14T18:57:35.340Z,69.32
2017-10-14T19:00:02.425Z,69.49
2017-10-14T19:02:29.480Z,68.68
2017-10-14T19:04:56.582Z,68.30
2017-10-14T19:07:22.861Z,68.09
2017-10-14T19:09:49.937Z,68.09
2017-10-14T19:12:17.377Z,68.38
2017-10-14T19:14:43.726Z,68.13
2017-10-14T19:17:16.981Z,68.39
2017-10-14T19:19:44.020Z,68.75
2017-10-14T19:22:10.311Z,69.00
2017-10-14T19:24:36.718Z,69.12
2017-10-14T19:27:03.034Z,69.19
2017-10-14T19:29:29.450Z,69.18
2017-10-14T19:31:55.789Z,69.29
2017-10-14T19:34:22.833Z,69.35
2017-10-14T19:36:49.850Z,69.76
2017-10-14T19:39:16.117Z,69.70
2017-10-14T19:41:43.123Z,69.93
2017-10-14T19:44:09.404Z,70.03
2017-10-14T19:46:36.457Z,70.36
2017-10-14T19:49:02.800Z,70.49
2017-10-14T19:51:29.133Z,70.60
2017-10-14T19:53:55.550Z,70.90
2017-10-14T19:56:21.887Z,70.95
2017-10-14T19:58:48.205Z,71.14
2017-10-14T20:01:15.388Z,70.89
2017-10-14T20:03:41.760Z,71.47
2017-10-14T20:06:08.057Z,71.21
2017-10-14T20:08:34.334Z,71.70
2017-10-14T20:11:01.350Z,72.03
2017-10-14T20:13:27.645Z,72.43
2017-10-14T20:15:53.925Z,71.88
2017-10-14T20:18:20.178Z,72.30
2017-10-14T20:20:47.222Z,72.65
2017-10-14T20:23:15.117Z,72.99
2017-10-14T20:25:42.057Z,73.47
2017-10-14T20:28:08.289Z,73.90
2017-10-14T20:30:34.595Z,73.58
2017-10-14T20:33:01.608Z,73.69
2017-10-14T20:35:27.854Z,73.97
2017-10-14T20:37:54.118Z,73.99
2017-10-14T20:40:20.378Z,73.72
2017-10-14T20:42:46.688Z,74.23
2017-10-14T20:45:13.009Z,74.36
2017-10-14T20:47:39.290Z,74.47
2017-10-14T20:50:05.657Z,74.68
2017-10-14T20:52:32.686Z,74.79
2017-10-14T20:54:58.982Z,74.88
2017-10-14T20:57:25.299Z,74.89
2017-10-14T20:59:51.574Z,75.10
2017-10-14T21:02:17.990Z,75.00
2017-10-14T21:04:45.041Z,74.94
2017-10-14T21:07:11.323Z,75.33
2017-10-14T21:09:38.364Z,75.68
2017-10-14T21:12:04.804Z,76.09
2017-10-14T21:14:31.143Z,76.28
2017-10-14T21:16:57.390Z,75.77
2017-10-14T21:19:23.675Z,75.65
2017-10-14T21:21:50.709Z,75.61
2017-10-14T21:24:17.030Z,76.07
2017-10-14T21:26:43.318Z,75.96
2017-10-14T21:29:09.601Z,76.57
2017-10-14T21:31:35.902Z,76.43
2017-10-14T21:34:02.179Z,76.40
2017-10-14T21:36:29.218Z,76.47
2017-10-14T21:38:55.530Z,76.51
2017-10-14T21:41:21.890Z,76.40
2017-10-14T21:43:48.180Z,76.45
2017-10-14T21:46:14.435Z,76.41
2017-10-14T21:48:40.697Z,76.36
2017-10-14T21:51:06.973Z,76.16
2017-10-14T21:53:33.326Z,76.32
2017-10-14T22:16:23.681Z,77.79
2017-10-14T22:21:47.208Z,77.36
2017-10-14T22:24:22.400Z,77.39
2017-10-14T22:26:59.553Z,77.38
2017-10-14T22:29:25.833Z,77.32
2017-10-14T22:31:52.203Z,77.21
2017-10-14T22:34:18.449Z,76.82
2017-10-14T22:36:44.735Z,77.06
2017-10-14T22:39:10.977Z,76.96
2017-10-14T22:41:37.264Z,77.03
2017-10-14T23:04:56.678Z,78.14
2017-10-14T23:07:41.116Z,77.78
2017-10-14T23:10:16.626Z,77.28
2017-10-14T23:12:42.917Z,76.27
2017-10-14T23:15:09.938Z,76.23
2017-10-14T23:17:36.212Z,76.64
2017-10-14T23:20:02.505Z,76.21
2017-10-14T23:22:28.792Z,76.71
2017-10-14T23:24:55.139Z,76.79
2017-10-14T23:27:21.424Z,76.97
2017-10-14T23:29:47.706Z,77.14
2017-10-14T23:32:14.001Z,77.31
2017-10-14T23:34:41.259Z,77.19
2017-10-14T23:37:07.524Z,77.24
2017-10-14T23:39:33.781Z,77.46
2017-10-14T23:42:00.818Z,77.31
2017-10-14T23:44:27.117Z,77.62
2017-10-14T23:46:53.400Z,77.56
2017-10-14T23:49:20.441Z,77.19
2017-10-14T23:51:47.464Z,77.49
2017-10-14T23:54:13.746Z,77.28
2017-10-14T23:56:40.082Z,77.41
2017-10-14T23:59:06.410Z,77.58
